createdAt,value
2019-05-14T00:01:18.630Z,1.50
2019-05-14T00:03:45.562Z,1.73
2019-05-14T00:06:12.570Z,1.60
2019-05-14T00:08:41.637Z,2.50
2019-05-14T00:11:08.379Z,1.73
2019-05-14T00:13:35.464Z,2.10
2019-05-14T00:16:02.524Z,2.17
2019-05-14T00:18:31.442Z,1.60
2019-05-14T00:20:58.390Z,2.00
2019-05-14T00:23:25.340Z,1.77
2019-05-14T00:25:52.474Z,1.90
2019-05-14T00:28:21.100Z,2.07
2019-05-14T00:30:48.258Z,2.60
2019-05-14T00:33:15.211Z,2.23
2019-05-14T00:35:42.181Z,1.83
2019-05-14T00:38:09.160Z,2.10
2019-05-14T00:40:36.134Z,2.40
2019-05-14T00:43:03.245Z,2.23
2019-05-14T00:45:31.329Z,1.77
2019-05-14T00:47:58.486Z,2.90
2019-05-14T00:50:26.696Z,2.10
2019-05-14T00:52:53.817Z,2.23
2019-05-14T00:55:22.336Z,2.27
2019-05-14T00:57:51.874Z,2.57
2019-05-14T01:00:18.571Z,2.60
2019-05-14T01:02:45.558Z,2.20
2019-05-14T01:05:12.816Z,2.80
2019-05-14T01:07:42.076Z,2.40
2019-05-14T01:10:11.457Z,2.90
2019-05-14T01:12:37.919Z,2.83
2019-05-14T01:15:10.209Z,3.40
2019-05-14T01:17:34.016Z,2.50
2019-05-14T01:20:03.062Z,2.60
2019-05-14T01:22:31.636Z,3.40
2019-05-14T01:24:58.827Z,2.90
2019-05-14T01:27:25.807Z,3.57
2019-05-14T01:29:52.775Z,3.53
2019-05-14T01:32:22.103Z,3.00
2019-05-14T01:34:49.304Z,2.87
2019-05-14T01:37:16.286Z,2.40
2019-05-14T01:39:43.227Z,3.27
2019-05-14T01:42:12.529Z,3.03
2019-05-14T01:44:41.272Z,2.93
2019-05-14T01:47:08.140Z,3.07
2019-05-14T01:49:35.072Z,3.10
2019-05-14T01:52:02.055Z,3.00
2019-05-14T01:54:31.515Z,2.90
2019-05-14T01:56:57.918Z,3.30
2019-05-14T01:59:26.028Z,3.50
2019-05-14T02:01:53.009Z,3.20
2019-05-14T02:04:21.974Z,3.17
2019-05-14T02:06:48.849Z,3.20
2019-05-14T02:09:15.799Z,3.20
2019-05-14T02:11:42.771Z,3.17
2019-05-14T02:14:11.599Z,3.30
2019-05-14T02:16:38.599Z,3.47
2019-05-14T02:19:05.612Z,3.33
2019-05-14T02:21:32.596Z,3.27
2019-05-14T02:24:01.835Z,3.20
2019-05-14T02:26:28.648Z,3.20
2019-05-14T02:28:55.741Z,3.23
2019-05-14T02:31:22.826Z,3.40
2019-05-14T02:33:50.591Z,3.03
2019-05-14T02:36:19.501Z,3.00
2019-05-14T02:38:49.373Z,3.40
2019-05-14T02:41:19.261Z,3.20
2019-05-14T02:43:44.553Z,3.20
2019-05-14T02:46:16.970Z,3.80
2019-05-14T02:48:40.543Z,3.80
2019-05-14T02:51:10.465Z,3.70
2019-05-14T02:53:39.118Z,3.00
2019-05-14T02:56:05.634Z,3.77
2019-05-14T02:58:32.600Z,4.07
2019-05-14T03:01:00.740Z,3.60
2019-05-14T03:03:29.905Z,3.97
2019-05-14T03:06:00.023Z,3.77
2019-05-14T03:08:25.856Z,3.97
2019-05-14T03:10:52.806Z,4.23
2019-05-14T03:13:20.402Z,3.50
2019-05-14T03:15:49.837Z,3.47
2019-05-14T03:18:19.547Z,3.97
2019-05-14T03:20:50.158Z,4.30
2019-05-14T03:23:19.602Z,4.27
2019-05-14T03:25:45.057Z,4.50
2019-05-14T03:28:12.123Z,4.50
2019-05-14T03:30:42.398Z,4.90
2019-05-14T03:33:13.169Z,4.23
2019-05-14T03:35:48.130Z,4.50
2019-05-14T03:38:09.222Z,4.53
2019-05-14T03:40:34.897Z,4.07
2019-05-14T03:43:01.940Z,4.50
2019-05-14T03:45:30.385Z,4.03
2019-05-14T03:47:58.877Z,4.57
2019-05-14T03:50:29.478Z,4.43
2019-05-14T03:52:55.112Z,4.13
2019-05-14T03:55:22.425Z,4.80
2019-05-14T03:57:50.179Z,4.13
2019-05-14T04:00:21.749Z,4.83
2019-05-14T04:02:51.577Z,4.60
2019-05-14T04:05:22.589Z,4.77
2019-05-14T04:07:50.209Z,5.50
2019-05-14T04:10:19.416Z,4.60
2019-05-14T04:12:49.313Z,5.03
2019-05-14T04:15:19.229Z,6.03
2019-05-14T04:17:50.206Z,5.33
2019-05-14T04:20:19.454Z,5.77
2019-05-14T04:22:49.989Z,6.23
2019-05-14T04:25:19.486Z,6.17
2019-05-14T04:27:49.395Z,6.03
2019-05-14T04:30:23.587Z,6.60
2019-05-14T04:32:50.481Z,5.67
2019-05-14T04:35:19.943Z,5.10
2019-05-14T04:37:49.362Z,6.10
2019-05-14T04:40:15.092Z,5.20
2019-05-14T04:42:42.080Z,6.10
2019-05-14T04:45:11.049Z,5.67
2019-05-14T04:47:42.131Z,6.33
2019-05-14T04:50:10.560Z,6.40
2019-05-14T04:52:40.327Z,7.03
2019-05-14T04:55:09.835Z,5.87
2019-05-14T04:57:38.907Z,6.00
2019-05-14T05:00:05.234Z,6.60
2019-05-14T05:02:32.383Z,6.00
2019-05-14T05:04:59.638Z,5.30
2019-05-14T05:07:29.518Z,5.93
2019-05-14T05:09:55.714Z,6.13
2019-05-14T05:12:22.685Z,6.30
2019-05-14T05:14:49.681Z,6.93
2019-05-14T05:17:19.618Z,6.30
2019-05-14T05:19:46.236Z,5.93
2019-05-14T05:22:13.439Z,6.77
2019-05-14T05:24:40.447Z,5.83
2019-05-14T05:27:09.465Z,6.07
2019-05-14T05:29:39.029Z,5.57
2019-05-14T05:32:05.450Z,5.73
2019-05-14T05:34:32.379Z,5.77
2019-05-14T05:36:59.469Z,6.47
2019-05-14T05:39:28.281Z,5.03
2019-05-14T05:42:13.738Z,5.20
2019-05-14T05:44:40.843Z,6.00
2019-05-14T05:47:09.160Z,5.83
2019-05-14T05:49:38.669Z,5.77
2019-05-14T05:52:08.324Z,5.50
2019-05-14T05:54:38.214Z,5.30
2019-05-14T05:57:05.132Z,5.57
2019-05-14T05:59:32.102Z,5.90
2019-05-14T06:01:59.111Z,5.30
2019-05-14T06:04:28.761Z,5.67
2019-05-14T06:06:54.923Z,5.60
2019-05-14T06:09:22.161Z,5.23
2019-05-14T06:11:49.114Z,5.57
2019-05-14T06:14:18.474Z,5.17
2019-05-14T06:16:44.959Z,5.10
2019-05-14T06:19:12.190Z,4.67
2019-05-14T06:21:39.861Z,5.50
2019-05-14T06:24:09.045Z,5.27
2019-05-14T06:26:35.807Z,4.83
2019-05-14T06:29:02.788Z,4.83
2019-05-14T06:31:29.830Z,4.60
2019-05-14T06:33:59.189Z,5.20
2019-05-14T06:36:25.675Z,4.73
2019-05-14T06:38:52.644Z,5.10
2019-05-14T06:41:19.724Z,4.70
2019-05-14T06:43:48.736Z,4.90
2019-05-14T06:46:15.596Z,5.13
2019-05-14T06:48:42.550Z,4.70
2019-05-14T06:51:09.763Z,4.50
2019-05-14T06:53:39.104Z,4.27
2019-05-14T06:56:08.008Z,4.00
2019-05-14T06:58:34.611Z,4.17
2019-05-14T07:01:01.673Z,4.30
2019-05-14T07:03:28.597Z,4.30
2019-05-14T07:05:55.559Z,3.83
2019-05-14T07:08:22.561Z,3.77
2019-05-14T07:10:49.538Z,4.37
2019-05-14T07:13:18.722Z,4.30
2019-05-14T07:15:45.408Z,3.70
2019-05-14T07:18:14.159Z,4.40
2019-05-14T07:20:41.119Z,3.20
2019-05-14T07:23:08.344Z,3.73
2019-05-14T07:25:35.347Z,3.40
2019-05-14T07:28:48.873Z,3.57
2019-05-14T07:31:18.398Z,3.80
2019-05-14T07:33:44.542Z,4.13
2019-05-14T07:36:11.528Z,3.67
2019-05-14T07:38:39.165Z,4.00
2019-05-14T07:41:08.957Z,4.10
2019-05-14T07:44:12.356Z,4.00
2019-05-14T07:46:39.306Z,3.93
2019-05-14T07:49:10.910Z,3.97
2019-05-14T07:51:35.116Z,3.87
2019-05-14T07:54:20.533Z,3.60
2019-05-14T07:56:50.898Z,3.60
2019-05-14T07:59:18.078Z,3.90
2019-05-14T08:01:45.338Z,3.63
2019-05-14T08:04:12.340Z,3.97
2019-05-14T08:06:39.552Z,4.23
2019-05-14T08:09:08.645Z,4.20
2019-05-14T08:11:38.755Z,4.43
2019-05-14T08:14:05.742Z,4.10
2019-05-14T08:16:32.844Z,3.53
2019-05-14T08:19:00.263Z,3.67
2019-05-14T08:21:28.357Z,3.77
2019-05-14T08:23:55.956Z,3.77
2019-05-14T08:26:22.908Z,3.23
2019-05-14T08:28:49.863Z,3.70
2019-05-14T08:31:18.630Z,4.00
2019-05-14T08:33:49.348Z,4.00
2019-05-14T08:36:18.391Z,4.63
2019-05-14T08:38:45.559Z,4.00
2019-05-14T08:41:13.542Z,4.37
2019-05-14T08:43:40.583Z,4.43
2019-05-14T08:46:08.309Z,4.43
2019-05-14T08:48:35.413Z,4.50
2019-05-14T08:51:02.481Z,4.43
2019-05-14T08:53:29.451Z,4.70
2019-05-14T08:55:58.643Z,4.50
2019-05-14T08:58:25.486Z,4.90
2019-05-14T09:00:53.053Z,4.90
2019-05-14T09:03:20.174Z,4.40
2019-05-14T09:05:49.193Z,5.00
2019-05-14T09:08:19.171Z,4.80
2019-05-14T09:11:04.802Z,4.60
2019-05-14T09:13:31.760Z,4.33
2019-05-14T09:15:58.713Z,5.00
2019-05-14T09:18:25.712Z,4.47
2019-05-14T09:20:52.660Z,4.63
2019-05-14T09:23:19.623Z,4.63
2019-05-14T09:25:50.470Z,4.37
2019-05-14T09:28:18.681Z,4.73
2019-05-14T09:30:44.474Z,4.70
2019-05-14T09:33:13.118Z,4.27
2019-05-14T09:35:40.109Z,5.07
2019-05-14T09:38:08.702Z,4.40
2019-05-14T09:40:35.924Z,4.67
2019-05-14T09:43:02.916Z,4.80
2019-05-14T09:45:29.845Z,4.40
2019-05-14T09:47:58.678Z,4.37
2019-05-14T09:50:25.909Z,4.60
2019-05-14T09:52:52.866Z,4.43
2019-05-14T09:55:19.960Z,4.80
2019-05-14T09:57:58.545Z,4.70
2019-05-14T10:00:25.321Z,4.40
2019-05-14T10:03:13.975Z,4.53
2019-05-14T10:05:40.961Z,4.17
2019-05-14T10:08:08.958Z,5.07
2019-05-14T10:10:36.215Z,4.93
2019-05-14T10:13:03.193Z,4.23
2019-05-14T10:15:30.175Z,3.77
2019-05-14T10:18:00.227Z,4.60
2019-05-14T10:20:40.940Z,4.70
2019-05-14T10:23:02.883Z,4.77
2019-05-14T10:25:29.965Z,4.40
2019-05-14T10:27:59.090Z,4.37
2019-05-14T10:30:28.427Z,3.73
2019-05-14T10:32:55.307Z,4.03
2019-05-14T10:35:22.315Z,4.10
2019-05-14T10:37:49.293Z,3.83
2019-05-14T10:40:18.519Z,4.27
2019-05-14T10:42:45.559Z,4.40
2019-05-14T10:45:13.318Z,3.90
2019-05-14T10:47:40.488Z,3.90
2019-05-14T10:50:13.357Z,3.83
2019-05-14T10:52:39.315Z,3.50
2019-05-14T10:55:24.381Z,3.43
2019-05-14T10:57:54.299Z,3.63
2019-05-14T11:00:20.626Z,3.30
2019-05-14T11:02:49.228Z,3.40
2019-05-14T11:05:18.551Z,3.90
2019-05-14T11:07:45.132Z,3.90
2019-05-14T11:10:12.348Z,4.10
2019-05-14T11:12:39.810Z,4.33
2019-05-14T11:15:07.159Z,4.33
2019-05-14T11:17:34.134Z,3.87
2019-05-14T11:20:01.205Z,5.67
2019-05-14T11:22:48.895Z,3.80
2019-05-14T11:25:15.540Z,3.77
2019-05-14T11:27:42.490Z,3.83
2019-05-14T11:30:09.982Z,4.43
2019-05-14T11:32:38.531Z,4.00
2019-05-14T11:35:12.876Z,3.63
2019-05-14T11:37:41.118Z,4.60
2019-05-14T11:40:08.758Z,3.87
2019-05-14T11:42:38.658Z,4.17
2019-05-14T11:45:05.557Z,3.70
2019-05-14T11:47:32.586Z,3.73
2019-05-14T11:49:59.590Z,3.77
2019-05-14T11:52:28.620Z,4.20
2019-05-14T11:54:55.473Z,3.87
2019-05-14T11:57:22.547Z,4.07
2019-05-14T11:59:49.679Z,3.13
2019-05-14T12:02:18.908Z,3.53
2019-05-14T12:04:46.738Z,3.13
2019-05-14T12:07:13.677Z,3.17
2019-05-14T12:09:42.775Z,4.03
2019-05-14T12:12:12.179Z,2.97
2019-05-14T12:14:38.620Z,2.80
2019-05-14T12:17:05.667Z,3.53
2019-05-14T12:19:39.393Z,3.37
2019-05-14T12:22:24.282Z,3.50
2019-05-14T12:24:51.259Z,2.90
2019-05-14T12:27:25.626Z,3.13
2019-05-14T12:29:52.670Z,3.37
2019-05-14T12:32:21.454Z,2.90
2019-05-14T12:34:48.936Z,2.90
2019-05-14T12:37:18.582Z,3.33
2019-05-14T12:39:45.120Z,3.17
2019-05-14T12:42:12.118Z,2.97
2019-05-14T12:44:40.925Z,3.30
2019-05-14T12:47:09.460Z,3.10
2019-05-14T12:49:38.794Z,2.90
2019-05-14T12:52:21.145Z,2.90
2019-05-14T12:54:34.520Z,3.10
2019-05-14T12:57:01.581Z,3.30
2019-05-14T12:59:28.707Z,5.47
2019-05-14T13:01:58.491Z,5.07
2019-05-14T13:04:24.582Z,3.33
2019-05-14T13:06:51.611Z,3.60
2019-05-14T13:09:21.605Z,3.00
2019-05-14T13:11:50.185Z,3.90
2019-05-14T13:14:18.305Z,3.27
2019-05-14T13:16:45.444Z,3.00
2019-05-14T13:19:49.087Z,4.13
2019-05-14T13:22:19.068Z,3.50
2019-05-14T13:24:44.942Z,3.53
2019-05-14T13:27:11.911Z,3.07
2019-05-14T13:29:38.982Z,2.93
2019-05-14T13:32:11.966Z,3.20
2019-05-14T13:34:35.910Z,3.47
2019-05-14T13:37:02.889Z,3.20
2019-05-14T13:39:29.872Z,3.60
2019-05-14T13:41:58.930Z,3.00
2019-05-14T13:44:26.125Z,3.30
2019-05-14T13:46:59.805Z,3.00
2019-05-14T13:49:29.240Z,3.93
2019-05-14T13:52:02.789Z,3.10
2019-05-14T13:54:32.069Z,3.10
2019-05-14T13:56:59.188Z,3.17
2019-05-14T13:59:26.236Z,2.97
2019-05-14T14:01:54.977Z,2.83
2019-05-14T14:04:22.164Z,3.17
2019-05-14T14:06:49.202Z,3.03
2019-05-14T14:09:16.311Z,3.30
2019-05-14T14:11:43.303Z,3.50
2019-05-14T14:14:10.317Z,3.50
2019-05-14T14:17:02.049Z,3.60
2019-05-14T14:19:31.201Z,3.20
2019-05-14T14:21:59.071Z,3.30
2019-05-14T14:24:28.837Z,2.80
2019-05-14T14:26:55.188Z,3.90
2019-05-14T14:29:21.779Z,3.40
2019-05-14T14:31:48.819Z,3.53
2019-05-14T14:34:18.100Z,3.00
2019-05-14T14:36:44.804Z,3.30
2019-05-14T14:39:11.766Z,3.53
2019-05-14T14:41:38.897Z,2.90
2019-05-14T14:44:08.586Z,3.00
2019-05-14T14:46:42.028Z,2.90
2019-05-14T14:49:10.776Z,3.30
2019-05-14T14:51:43.964Z,3.17
2019-05-14T14:54:14.402Z,3.17
2019-05-14T14:56:37.926Z,3.00
2019-05-14T14:59:18.967Z,3.47
2019-05-14T15:01:46.125Z,3.23
2019-05-14T15:04:14.113Z,3.50
2019-05-14T15:06:43.020Z,3.00
2019-05-14T15:09:10.018Z,3.80
2019-05-14T15:11:39.620Z,3.23
2019-05-14T15:14:08.281Z,2.70
2019-05-14T15:16:35.002Z,3.20
2019-05-14T15:19:04.146Z,3.17
2019-05-14T15:21:31.289Z,3.13
2019-05-14T15:24:07.306Z,3.00
2019-05-14T15:26:28.873Z,2.73
2019-05-14T15:28:58.250Z,3.00
2019-05-14T15:31:24.873Z,3.37
2019-05-14T15:33:54.005Z,2.43
2019-05-14T15:36:20.994Z,2.83
2019-05-14T15:38:48.595Z,2.43
2019-05-14T15:41:20.145Z,2.93
2019-05-14T15:43:46.810Z,3.10
2019-05-14T15:46:13.794Z,3.03
2019-05-14T15:48:40.910Z,3.33
2019-05-14T15:51:11.424Z,3.27
2019-05-14T15:53:38.658Z,2.70
2019-05-14T15:56:07.910Z,2.67
2019-05-14T15:58:34.637Z,2.90
2019-05-14T16:01:01.674Z,2.97
2019-05-14T16:03:28.842Z,3.10
2019-05-14T16:06:01.691Z,3.00
2019-05-14T16:08:52.955Z,3.30
2019-05-14T16:11:21.202Z,2.70
2019-05-14T16:13:49.412Z,2.60
2019-05-14T16:16:19.446Z,2.23
2019-05-14T16:18:47.867Z,2.10
2019-05-14T16:21:14.577Z,2.43
2019-05-14T16:23:42.653Z,2.67
2019-05-14T16:26:09.621Z,2.80
2019-05-14T16:28:39.133Z,2.50
2019-05-14T16:31:05.609Z,2.50
2019-05-14T16:33:32.568Z,3.10
2019-05-14T16:35:59.614Z,2.87
2019-05-14T16:38:28.529Z,2.30
2019-05-14T16:40:55.648Z,2.40
2019-05-14T16:43:22.663Z,2.27
2019-05-14T16:45:49.633Z,2.60
2019-05-14T16:48:18.249Z,2.27
2019-05-14T16:50:45.417Z,2.20
2019-05-14T16:53:12.396Z,2.33
2019-05-14T16:55:39.366Z,2.83
2019-05-14T16:58:08.846Z,2.53
2019-05-14T17:00:35.256Z,2.23
2019-05-14T17:03:10.183Z,2.60
2019-05-14T17:05:38.190Z,2.47
2019-05-14T17:08:05.407Z,1.97
2019-05-14T17:10:38.775Z,2.20
2019-05-14T17:13:08.892Z,2.10
2019-05-14T17:15:34.925Z,1.90
2019-05-14T17:18:02.052Z,2.67
2019-05-14T17:20:29.062Z,2.13
2019-05-14T17:22:56.038Z,2.10
2019-05-14T17:25:27.178Z,2.33
2019-05-14T17:27:52.090Z,2.10
2019-05-14T17:30:19.171Z,1.97
2019-05-14T17:32:46.198Z,2.17
2019-05-14T17:35:13.268Z,2.23
2019-05-14T17:37:40.361Z,1.90
2019-05-14T17:40:09.791Z,1.73
2019-05-14T17:42:39.312Z,2.13
2019-05-14T17:45:09.096Z,1.90
2019-05-14T17:47:38.823Z,2.17
2019-05-14T17:50:18.248Z,1.87
2019-05-14T17:52:45.391Z,1.90
2019-05-14T17:55:12.892Z,2.13
2019-05-14T17:57:46.029Z,2.07
2019-05-14T18:00:09.864Z,2.37
2019-05-14T18:02:36.935Z,2.20
2019-05-14T18:05:04.920Z,2.50
2019-05-14T18:07:33.748Z,2.37
2019-05-14T18:10:00.819Z,2.07
2019-05-14T18:12:30.474Z,2.07
2019-05-14T18:14:58.800Z,2.40
2019-05-14T18:17:25.629Z,2.17
2019-05-14T18:19:52.550Z,2.00
2019-05-14T18:22:19.659Z,2.17
2019-05-14T18:25:23.127Z,1.83
2019-05-14T18:27:50.262Z,1.97
2019-05-14T18:30:18.303Z,1.93
2019-05-14T18:32:45.417Z,2.10
2019-05-14T18:35:12.548Z,2.20
2019-05-14T18:37:39.697Z,2.30
2019-05-14T18:40:28.066Z,2.00
2019-05-14T18:42:55.033Z,2.10
2019-05-14T18:45:22.005Z,1.60
2019-05-14T18:47:49.013Z,1.83
2019-05-14T18:50:16.326Z,1.80
2019-05-14T18:52:43.294Z,2.00
2019-05-14T18:55:10.637Z,1.87
2019-05-14T18:57:38.226Z,2.27
2019-05-14T19:00:07.158Z,2.10
2019-05-14T19:02:34.286Z,1.90
2019-05-14T19:05:01.296Z,1.73
2019-05-14T19:07:28.893Z,1.80
2019-05-14T19:09:58.489Z,1.90
2019-05-14T19:12:43.208Z,2.40
2019-05-14T19:15:10.415Z,1.93
2019-05-14T19:17:38.651Z,2.23
2019-05-14T19:20:08.311Z,2.20
2019-05-14T19:22:42.602Z,2.20
2019-05-14T19:25:09.590Z,1.83
2019-05-14T19:27:38.075Z,2.13
2019-05-14T19:30:05.638Z,1.60
2019-05-14T19:32:34.524Z,2.03
2019-05-14T19:35:01.927Z,2.50
2019-05-14T19:37:29.150Z,2.43
2019-05-14T19:39:58.585Z,2.20
2019-05-14T19:42:25.272Z,2.00
2019-05-14T19:44:52.248Z,2.03
2019-05-14T19:47:19.354Z,1.90
2019-05-14T19:49:48.479Z,1.77
2019-05-14T19:52:15.279Z,1.97
2019-05-14T19:54:42.323Z,1.87
2019-05-14T19:57:13.777Z,1.83
2019-05-14T19:59:40.920Z,2.23
2019-05-14T20:02:09.490Z,2.00
2019-05-14T20:04:36.797Z,1.93
2019-05-14T20:07:04.011Z,1.90
2019-05-14T20:09:31.092Z,1.90
2019-05-14T20:11:58.278Z,2.50
2019-05-14T20:15:24.170Z,2.20
2019-05-14T20:17:52.287Z,2.30
2019-05-14T20:20:19.467Z,2.37
2019-05-14T20:23:04.777Z,2.20
2019-05-14T20:25:31.879Z,2.00
2019-05-14T20:27:58.959Z,2.50
2019-05-14T20:30:29.506Z,2.50
2019-05-14T20:32:59.077Z,2.43
2019-05-14T20:35:34.055Z,2.03
2019-05-14T20:37:54.598Z,1.93
2019-05-14T20:40:22.564Z,2.20
2019-05-14T20:42:49.892Z,2.50
2019-05-14T20:45:19.117Z,2.67
2019-05-14T20:47:47.999Z,2.60
2019-05-14T20:50:15.055Z,3.23
2019-05-14T20:52:59.197Z,3.07
2019-05-14T20:55:28.517Z,2.60
2019-05-14T20:57:55.151Z,2.70
2019-05-14T21:00:22.212Z,2.77
2019-05-14T21:02:49.250Z,3.20
2019-05-14T21:05:18.673Z,3.43
2019-05-14T21:07:45.285Z,3.33
2019-05-14T21:10:12.694Z,2.50
2019-05-14T21:12:39.731Z,2.80
2019-05-14T21:15:08.953Z,2.40
2019-05-14T21:17:36.314Z,2.73
2019-05-14T21:20:03.697Z,3.70
2019-05-14T21:22:31.839Z,3.90
2019-05-14T21:24:59.097Z,2.60
2019-05-14T21:27:38.621Z,3.53
2019-05-14T21:29:55.001Z,3.60
2019-05-14T21:32:22.122Z,4.27
2019-05-14T21:35:22.705Z,4.73
2019-05-14T21:37:51.643Z,4.40
2019-05-14T21:40:18.770Z,3.93
2019-05-14T21:42:45.936Z,3.77
2019-05-14T21:45:14.762Z,3.03
2019-05-14T21:47:41.816Z,2.93
2019-05-14T21:50:09.227Z,3.77
2019-05-14T21:52:39.212Z,3.97
2019-05-14T21:55:06.010Z,3.33
2019-05-14T21:57:35.108Z,4.27
2019-05-14T22:00:02.139Z,4.40
2019-05-14T22:02:30.514Z,4.20
2019-05-14T22:04:58.238Z,3.80
2019-05-14T22:07:26.731Z,3.67
2019-05-14T22:09:53.863Z,4.07
2019-05-14T22:12:20.873Z,3.93
2019-05-14T22:14:48.232Z,4.17
2019-05-14T22:17:15.393Z,3.83
2019-05-14T22:19:42.480Z,4.27
2019-05-14T22:22:09.523Z,3.63
2019-05-14T22:24:38.365Z,4.20
2019-05-14T22:27:05.512Z,3.60
2019-05-14T22:29:34.464Z,3.40
2019-05-14T22:32:01.463Z,4.00
2019-05-14T22:34:28.590Z,3.40
2019-05-14T22:36:57.926Z,3.93
2019-05-14T22:39:24.540Z,4.30
2019-05-14T22:41:51.512Z,3.73
2019-05-14T22:44:37.022Z,4.23
2019-05-14T22:47:04.115Z,3.60
2019-05-14T22:49:31.170Z,4.03
2019-05-14T22:51:58.868Z,4.00
2019-05-14T22:54:26.120Z,3.90
2019-05-14T22:56:53.150Z,3.83
2019-05-14T22:59:20.585Z,3.87
2019-05-14T23:01:48.126Z,3.43
2019-05-14T23:04:18.109Z,3.80
2019-05-14T23:06:45.290Z,4.27
2019-05-14T23:09:12.283Z,3.30
2019-05-14T23:11:39.366Z,3.67
2019-05-14T23:14:06.347Z,3.23
2019-05-14T23:16:38.104Z,3.53
2019-05-14T23:19:20.933Z,3.57
2019-05-14T23:21:48.426Z,3.67
2019-05-14T23:24:15.583Z,3.90
2019-05-14T23:26:42.687Z,4.33
2019-05-14T23:29:09.723Z,3.97
2019-05-14T23:31:38.709Z,4.20
2019-05-14T23:34:05.825Z,3.93
2019-05-14T23:36:32.869Z,3.60
2019-05-14T23:38:59.886Z,4.33
2019-05-14T23:41:28.626Z,4.73
2019-05-14T23:43:55.835Z,4.90
2019-05-14T23:46:22.954Z,4.47
2019-05-14T23:48:49.945Z,5.47
2019-05-14T23:51:18.178Z,4.50
2019-05-14T23:53:45.471Z,4.10
2019-05-14T23:56:12.511Z,4.13
2019-05-14T23:58:54.027Z,4.07
